createdAt,value
2017-07-08T00:00:16.286Z,0
2017-07-08T00:01:17.702Z,0
2017-07-08T00:02:19.132Z,0
2017-07-08T00:03:20.530Z,0
2017-07-08T00:04:22.011Z,0
2017-07-08T00:05:23.411Z,0
2017-07-08T00:06:24.888Z,0
2017-07-08T00:07:26.293Z,0
2017-07-08T00:08:27.770Z,0
2017-07-08T00:09:29.187Z,0
2017-07-08T00:10:30.594Z,0
2017-07-08T00:11:32.091Z,0
2017-07-08T00:12:33.486Z,0
2017-07-08T00:13:34.890Z,0
2017-07-08T00:14:36.328Z,0
2017-07-08T00:15:37.725Z,0
2017-07-08T00:16:39.191Z,0
2017-07-08T00:17:40.589Z,0
2017-07-08T00:18:42.077Z,0
2017-07-08T00:19:43.527Z,0
2017-07-08T00:20:44.875Z,0
2017-07-08T00:21:46.288Z,0
2017-07-08T00:22:47.685Z,0
2017-07-08T00:23:49.086Z,0
2017-07-08T00:24:50.508Z,0
2017-07-08T00:25:51.915Z,0
2017-07-08T00:26:53.312Z,0
2017-07-08T00:27:54.727Z,0
2017-07-08T00:28:56.127Z,0
2017-07-08T00:29:57.529Z,0
2017-07-08T00:30:58.946Z,0
2017-07-08T00:32:00.345Z,0
2017-07-08T00:33:01.824Z,0
2017-07-08T00:34:03.224Z,0
2017-07-08T00:35:04.740Z,0
2017-07-08T00:36:06.140Z,0
2017-07-08T00:37:07.584Z,0
2017-07-08T00:38:08.984Z,0
2017-07-08T00:39:10.468Z,0
2017-07-08T00:40:11.867Z,0
2017-07-08T00:41:13.349Z,0
2017-07-08T00:42:14.748Z,0
2017-07-08T00:43:16.253Z,0
2017-07-08T00:44:17.648Z,0
2017-07-08T00:45:19.106Z,0
2017-07-08T00:46:20.550Z,0
2017-07-08T00:47:21.961Z,0
2017-07-08T00:48:23.368Z,0
2017-07-08T00:49:24.872Z,0
2017-07-08T00:50:26.278Z,0
2017-07-08T00:51:27.677Z,0
2017-07-08T00:52:29.091Z,0
2017-07-08T00:53:30.493Z,0
2017-07-08T00:54:31.890Z,0
2017-07-08T00:55:33.309Z,0
2017-07-08T00:56:34.707Z,0
2017-07-08T00:57:36.112Z,0
2017-07-08T00:58:37.526Z,0
2017-07-08T00:59:38.924Z,0
2017-07-08T01:00:40.323Z,0
2017-07-08T01:01:41.746Z,0
2017-07-08T01:02:43.144Z,0
2017-07-08T01:03:44.544Z,0
2017-07-08T01:04:45.958Z,0
2017-07-08T01:05:47.365Z,0
2017-07-08T01:06:48.769Z,0
2017-07-08T01:07:50.175Z,0
2017-07-08T01:08:51.575Z,0
2017-07-08T01:09:53.061Z,0
2017-07-08T01:10:54.462Z,0
2017-07-08T01:11:55.945Z,0
2017-07-08T01:12:57.364Z,0
2017-07-08T01:13:58.833Z,0
2017-07-08T01:15:00.231Z,0
2017-07-08T01:16:01.632Z,0
2017-07-08T01:17:03.146Z,0
2017-07-08T01:18:04.555Z,0
2017-07-08T01:19:05.951Z,0
2017-07-08T01:20:07.470Z,0
2017-07-08T01:21:08.867Z,0
2017-07-08T01:22:10.319Z,0
2017-07-08T01:23:11.787Z,0
2017-07-08T01:24:13.188Z,0
2017-07-08T01:25:14.589Z,0
2017-07-08T01:26:16.005Z,0
2017-07-08T01:27:17.402Z,0
2017-07-08T01:28:18.805Z,0
2017-07-08T01:29:20.223Z,0
2017-07-08T01:30:21.625Z,0
2017-07-08T01:31:23.024Z,0
2017-07-08T01:32:24.441Z,0
2017-07-08T01:33:25.844Z,0
2017-07-08T01:34:27.246Z,0
2017-07-08T01:35:28.767Z,0
2017-07-08T01:36:30.168Z,0
2017-07-08T01:37:31.567Z,0
2017-07-08T01:38:32.983Z,0
2017-07-08T01:39:34.394Z,0
2017-07-08T01:40:35.807Z,0
2017-07-08T01:41:37.331Z,0
2017-07-08T01:42:39.144Z,0
2017-07-08T01:43:40.592Z,0
2017-07-08T01:44:41.995Z,0
2017-07-08T01:45:43.412Z,0
2017-07-08T01:46:44.912Z,0
2017-07-08T01:47:46.320Z,0
2017-07-08T01:48:47.719Z,0
2017-07-08T01:49:49.230Z,0
2017-07-08T01:50:50.635Z,0
2017-07-08T01:51:52.032Z,0
2017-07-08T01:52:53.475Z,0
2017-07-08T01:53:54.896Z,0
2017-07-08T01:54:56.298Z,0
2017-07-08T01:55:57.798Z,0
2017-07-08T01:56:59.195Z,0
2017-07-08T01:58:00.596Z,0
2017-07-08T01:59:02.091Z,0
2017-07-08T02:00:03.493Z,0
2017-07-08T02:01:04.895Z,0
2017-07-08T02:02:06.313Z,0
2017-07-08T02:03:07.715Z,0
2017-07-08T02:04:09.194Z,0
2017-07-08T02:05:10.606Z,0
2017-07-08T02:06:12.030Z,0
2017-07-08T02:07:13.538Z,0
2017-07-08T02:08:14.941Z,0
2017-07-08T02:09:16.345Z,0
2017-07-08T02:10:17.833Z,0
2017-07-08T02:11:19.234Z,0
2017-07-08T02:12:20.639Z,0
2017-07-08T02:13:22.041Z,0
2017-07-08T02:14:23.494Z,0
2017-07-08T02:15:24.894Z,0
2017-07-08T02:16:26.295Z,0
2017-07-08T02:17:27.721Z,0
2017-07-08T02:18:29.121Z,0
2017-07-08T02:19:30.520Z,0
2017-07-08T02:20:32.030Z,0
2017-07-08T02:21:33.432Z,0
2017-07-08T02:22:34.908Z,0
2017-07-08T02:23:36.311Z,0
2017-07-08T02:24:37.792Z,0
2017-07-08T02:25:39.192Z,0
2017-07-08T02:26:40.673Z,0
2017-07-08T02:27:42.078Z,0
2017-07-08T02:28:43.550Z,0
2017-07-08T02:29:44.968Z,0
2017-07-08T02:30:46.366Z,0
2017-07-08T02:31:47.882Z,0
2017-07-08T02:32:49.279Z,0
2017-07-08T02:33:50.696Z,0
2017-07-08T02:34:52.273Z,0
2017-07-08T02:35:53.671Z,0
2017-07-08T02:36:55.079Z,0
2017-07-08T02:37:56.518Z,0
2017-07-08T02:38:57.915Z,0
2017-07-08T02:39:59.440Z,0
2017-07-08T02:41:00.915Z,0
2017-07-08T02:42:02.312Z,0
2017-07-08T02:43:03.817Z,0
2017-07-08T02:44:05.222Z,0
2017-07-08T02:45:06.621Z,0
2017-07-08T02:46:08.039Z,0
2017-07-08T02:47:09.439Z,0
2017-07-08T02:48:10.848Z,0
2017-07-08T02:49:12.244Z,0
2017-07-08T02:50:13.696Z,0
2017-07-08T02:51:15.097Z,0
2017-07-08T02:52:16.575Z,0
2017-07-08T02:53:17.974Z,0
2017-07-08T02:54:19.457Z,0
2017-07-08T02:55:20.865Z,0
2017-07-08T02:56:22.338Z,0
2017-07-08T02:57:23.737Z,0
2017-07-08T02:58:25.222Z,4
2017-07-08T02:59:26.622Z,4
2017-07-08T03:00:28.100Z,4
2017-07-08T03:01:29.499Z,0
2017-07-08T03:02:30.979Z,0
2017-07-08T03:03:32.380Z,4
2017-07-08T03:04:33.786Z,4
2017-07-08T03:05:35.185Z,4
2017-07-08T03:06:36.581Z,4
2017-07-08T03:07:37.981Z,8
2017-07-08T03:08:39.381Z,4
2017-07-08T03:09:40.858Z,4
2017-07-08T03:10:42.264Z,8
2017-07-08T03:11:43.666Z,8
2017-07-08T03:12:45.178Z,8
2017-07-08T03:13:46.579Z,8
2017-07-08T03:14:47.979Z,8
2017-07-08T03:15:49.398Z,12
2017-07-08T03:16:50.801Z,12
2017-07-08T03:17:52.279Z,12
2017-07-08T03:18:53.682Z,12
2017-07-08T03:19:55.160Z,12
2017-07-08T03:20:56.562Z,16
2017-07-08T03:21:57.961Z,16
2017-07-08T03:22:59.376Z,16
2017-07-08T03:24:00.778Z,16
2017-07-08T03:25:02.196Z,20
2017-07-08T03:26:03.698Z,20
2017-07-08T03:27:05.128Z,20
2017-07-08T03:28:06.531Z,20
2017-07-08T03:29:08.023Z,28
2017-07-08T03:30:09.419Z,28
2017-07-08T03:31:10.818Z,28
2017-07-08T03:32:12.239Z,28
2017-07-08T03:33:13.639Z,32
2017-07-08T03:34:15.041Z,36
2017-07-08T03:35:16.459Z,36
2017-07-08T03:36:17.863Z,36
2017-07-08T03:37:19.268Z,40
2017-07-08T03:38:20.787Z,40
2017-07-08T03:39:22.182Z,44
2017-07-08T03:40:23.581Z,44
2017-07-08T03:41:27.045Z,48
2017-07-08T03:42:28.459Z,48
2017-07-08T03:43:29.859Z,52
2017-07-08T03:44:31.364Z,52
2017-07-08T03:45:32.767Z,60
2017-07-08T03:46:34.173Z,60
2017-07-08T03:47:35.592Z,60
2017-07-08T03:48:36.995Z,64
2017-07-08T03:49:38.397Z,64
2017-07-08T03:50:39.900Z,68
2017-07-08T03:51:41.313Z,72
2017-07-08T03:52:42.712Z,76
2017-07-08T03:53:44.224Z,76
2017-07-08T03:54:45.627Z,80
2017-07-08T03:55:47.034Z,80
2017-07-08T03:56:48.563Z,88
2017-07-08T03:57:49.965Z,88
2017-07-08T03:58:51.432Z,88
2017-07-08T03:59:52.832Z,88
2017-07-08T04:00:54.313Z,96
2017-07-08T04:01:55.733Z,96
2017-07-08T04:02:57.129Z,104
2017-07-08T04:03:58.639Z,100
2017-07-08T04:05:00.039Z,104
2017-07-08T04:06:01.445Z,108
2017-07-08T04:07:02.960Z,112
2017-07-08T04:08:04.368Z,116
2017-07-08T04:09:05.769Z,120
2017-07-08T04:10:07.299Z,128
2017-07-08T04:11:08.714Z,128
2017-07-08T04:12:10.193Z,128
2017-07-08T04:13:11.698Z,140
2017-07-08T04:14:13.110Z,156
2017-07-08T04:15:14.577Z,172
2017-07-08T04:16:15.978Z,168
2017-07-08T04:17:17.393Z,180
2017-07-08T04:18:18.899Z,196
2017-07-08T04:19:20.303Z,204
2017-07-08T04:20:21.707Z,188
2017-07-08T04:21:23.215Z,216
2017-07-08T04:22:24.623Z,224
2017-07-08T04:23:26.019Z,224
2017-07-08T04:24:27.437Z,236
2017-07-08T04:25:28.841Z,248
2017-07-08T04:26:30.268Z,248
2017-07-08T04:27:31.760Z,244
2017-07-08T04:28:33.175Z,224
2017-07-08T04:29:34.637Z,208
2017-07-08T04:30:36.038Z,196
2017-07-08T04:31:37.519Z,188
2017-07-08T04:32:38.920Z,188
2017-07-08T04:33:40.322Z,176
2017-07-08T04:34:41.742Z,168
2017-07-08T04:35:43.135Z,164
2017-07-08T04:36:44.541Z,160
2017-07-08T04:37:46.058Z,172
2017-07-08T04:38:47.458Z,192
2017-07-08T04:39:48.941Z,256
2017-07-08T04:40:50.337Z,380
2017-07-08T04:41:51.820Z,476
2017-07-08T04:42:53.221Z,580
2017-07-08T04:43:54.702Z,656
2017-07-08T04:44:56.102Z,724
2017-07-08T04:45:57.649Z,696
2017-07-08T04:46:59.051Z,672
2017-07-08T04:48:00.454Z,648
2017-07-08T04:49:01.899Z,572
2017-07-08T04:50:03.304Z,544
2017-07-08T04:51:04.714Z,524
2017-07-08T04:52:06.221Z,496
2017-07-08T04:53:07.624Z,448
2017-07-08T04:54:09.033Z,420
2017-07-08T04:55:10.543Z,412
2017-07-08T04:56:11.944Z,408
2017-07-08T04:57:13.345Z,408
2017-07-08T04:58:14.861Z,404
2017-07-08T04:59:16.262Z,408
2017-07-08T05:00:17.744Z,404
2017-07-08T05:01:19.147Z,384
2017-07-08T05:02:20.622Z,380
2017-07-08T05:03:22.032Z,356
2017-07-08T05:04:23.502Z,328
2017-07-08T05:05:24.906Z,312
2017-07-08T05:06:26.383Z,300
2017-07-08T05:07:27.790Z,292
2017-07-08T05:08:29.275Z,292
2017-07-08T05:09:30.707Z,292
2017-07-08T05:10:32.142Z,304
2017-07-08T05:11:33.544Z,340
2017-07-08T05:12:35.025Z,392
2017-07-08T05:13:36.432Z,432
2017-07-08T05:14:37.914Z,440
2017-07-08T05:15:39.308Z,468
2017-07-08T05:16:40.800Z,500
2017-07-08T05:17:42.189Z,516
2017-07-08T05:18:43.644Z,484
2017-07-08T05:19:45.108Z,424
2017-07-08T05:20:46.512Z,400
2017-07-08T05:21:47.915Z,396
2017-07-08T05:22:49.428Z,432
2017-07-08T05:23:50.869Z,460
2017-07-08T05:24:52.266Z,508
2017-07-08T05:25:53.763Z,548
2017-07-08T05:26:55.163Z,576
2017-07-08T05:27:56.565Z,564
2017-07-08T05:28:58.072Z,560
2017-07-08T05:29:59.472Z,548
2017-07-08T05:31:00.875Z,544
2017-07-08T05:32:02.389Z,540
2017-07-08T05:33:03.804Z,568
2017-07-08T05:34:05.209Z,560
2017-07-08T05:35:06.710Z,516
2017-07-08T05:36:08.115Z,456
2017-07-08T05:37:09.590Z,412
2017-07-08T05:38:11.000Z,392
2017-07-08T05:39:12.472Z,404
2017-07-08T05:40:13.927Z,432
2017-07-08T05:41:15.289Z,444
2017-07-08T05:42:16.695Z,472
2017-07-08T05:43:18.096Z,496
2017-07-08T05:44:19.571Z,492
2017-07-08T05:45:20.978Z,500
2017-07-08T05:46:22.403Z,484
2017-07-08T05:47:23.894Z,492
2017-07-08T05:48:25.308Z,544
2017-07-08T05:49:26.711Z,584
2017-07-08T05:50:28.211Z,596
2017-07-08T05:51:29.615Z,572
2017-07-08T05:52:31.096Z,612
2017-07-08T05:53:32.493Z,652
2017-07-08T05:54:33.973Z,672
2017-07-08T05:55:35.379Z,688
2017-07-08T05:56:36.854Z,720
2017-07-08T05:57:38.257Z,720
2017-07-08T05:58:39.661Z,740
2017-07-08T05:59:41.074Z,732
2017-07-08T06:00:42.485Z,736
2017-07-08T06:01:43.893Z,756
2017-07-08T06:02:45.392Z,744
2017-07-08T06:03:46.798Z,776
2017-07-08T06:04:48.201Z,840
2017-07-08T06:05:49.715Z,880
2017-07-08T06:06:51.119Z,888
2017-07-08T06:07:52.598Z,852
2017-07-08T06:08:53.997Z,820
2017-07-08T06:09:55.474Z,804
2017-07-08T06:10:56.887Z,752
2017-07-08T06:11:58.362Z,732
2017-07-08T06:12:59.770Z,744
2017-07-08T06:14:01.252Z,740
2017-07-08T06:15:02.710Z,784
2017-07-08T06:16:04.186Z,852
2017-07-08T06:17:05.608Z,900
2017-07-08T06:18:07.102Z,956
2017-07-08T06:19:08.504Z,1016
2017-07-08T06:20:09.983Z,1108
2017-07-08T06:21:11.386Z,1240
2017-07-08T06:22:12.863Z,1320
2017-07-08T06:23:14.272Z,1352
2017-07-08T06:24:15.675Z,1308
2017-07-08T06:25:17.183Z,1264
2017-07-08T06:26:18.588Z,1200
2017-07-08T06:27:19.994Z,1248
2017-07-08T06:28:21.504Z,1312
2017-07-08T06:29:22.910Z,1304
2017-07-08T06:30:24.401Z,1332
2017-07-08T06:31:25.803Z,1248
2017-07-08T06:32:27.266Z,1196
2017-07-08T06:33:28.673Z,1192
2017-07-08T06:34:30.123Z,1228
2017-07-08T06:35:32.026Z,1260
2017-07-08T06:36:33.432Z,1272
2017-07-08T06:37:34.837Z,1212
2017-07-08T06:38:36.317Z,1200
2017-07-08T06:39:37.724Z,1144
2017-07-08T06:40:39.201Z,1128
2017-07-08T06:41:40.607Z,1188
2017-07-08T06:42:42.120Z,1164
2017-07-08T06:43:43.650Z,1088
2017-07-08T06:44:45.101Z,1008
2017-07-08T06:45:46.712Z,956
2017-07-08T06:46:48.126Z,936
2017-07-08T06:47:49.786Z,1004
2017-07-08T06:48:51.233Z,1132
2017-07-08T06:49:52.636Z,1236
2017-07-08T06:50:54.044Z,1332
2017-07-08T06:51:55.574Z,1288
2017-07-08T06:52:56.985Z,1256
2017-07-08T06:53:58.389Z,1212
2017-07-08T06:54:59.945Z,1316
2017-07-08T06:56:01.361Z,1536
2017-07-08T06:57:02.773Z,1808
2017-07-08T06:58:04.218Z,2036
2017-07-08T06:59:05.628Z,1928
2017-07-08T07:00:07.034Z,1772
2017-07-08T07:01:08.515Z,1612
2017-07-08T07:02:09.923Z,1396
2017-07-08T07:03:11.421Z,1196
2017-07-08T07:04:12.846Z,1096
2017-07-08T07:05:14.266Z,1164
2017-07-08T07:06:15.718Z,1188
2017-07-08T07:07:17.123Z,1224
2017-07-08T07:08:18.527Z,1172
2017-07-08T07:09:20.036Z,1100
2017-07-08T07:10:21.448Z,1068
2017-07-08T07:11:22.851Z,1052
2017-07-08T07:12:24.357Z,1080
2017-07-08T07:13:25.763Z,1044
2017-07-08T07:14:27.166Z,1040
2017-07-08T07:15:28.680Z,1064
2017-07-08T07:16:30.114Z,1076
2017-07-08T07:17:31.524Z,1120
2017-07-08T07:18:33.010Z,1184
2017-07-08T07:19:34.437Z,1176
2017-07-08T07:20:35.830Z,1216
2017-07-08T07:21:37.384Z,1272
2017-07-08T07:22:38.816Z,1352
2017-07-08T07:23:40.262Z,1496
2017-07-08T07:24:41.744Z,1584
2017-07-08T07:25:43.146Z,1536
2017-07-08T07:26:44.727Z,1544
2017-07-08T07:27:46.120Z,1624
2017-07-08T07:28:48.631Z,1660
2017-07-08T07:29:50.040Z,1816
2017-07-08T07:30:51.443Z,2076
2017-07-08T07:31:52.850Z,2572
2017-07-08T07:32:54.327Z,3512
2017-07-08T07:33:55.830Z,2844
2017-07-08T07:34:57.240Z,2620
2017-07-08T07:35:58.715Z,2644
2017-07-08T07:37:00.152Z,2508
2017-07-08T07:38:01.563Z,2944
2017-07-08T07:39:02.978Z,2512
2017-07-08T07:40:04.530Z,1948
2017-07-08T07:41:05.935Z,1404
2017-07-08T07:42:07.352Z,1260
2017-07-08T07:43:08.794Z,1428
2017-07-08T07:44:10.198Z,1560
2017-07-08T07:45:11.613Z,1688
2017-07-08T07:46:17.098Z,1712
2017-07-08T07:47:18.570Z,1724
2017-07-08T07:48:20.012Z,1652
2017-07-08T07:49:21.538Z,1568
2017-07-08T07:50:22.950Z,1540
2017-07-08T07:51:24.388Z,1584
2017-07-08T07:52:25.855Z,1676
2017-07-08T07:53:27.268Z,1876
2017-07-08T07:54:28.675Z,2148
2017-07-08T07:55:30.175Z,2368
2017-07-08T07:56:31.577Z,2448
2017-07-08T07:57:33.003Z,2300
2017-07-08T07:58:34.528Z,2232
2017-07-08T07:59:35.937Z,2124
2017-07-08T08:00:37.347Z,2156
2017-07-08T08:01:38.816Z,2104
2017-07-08T08:02:40.219Z,2076
2017-07-08T08:03:41.694Z,2160
2017-07-08T08:04:43.106Z,2424
2017-07-08T08:05:44.619Z,2776
2017-07-08T08:06:46.023Z,2724
2017-07-08T08:07:47.457Z,2748
2017-07-08T08:08:48.865Z,3096
2017-07-08T08:09:50.337Z,3340
2017-07-08T08:10:51.745Z,3384
2017-07-08T08:11:53.222Z,3652
2017-07-08T08:12:54.623Z,3488
2017-07-08T08:13:56.113Z,3680
2017-07-08T08:14:57.523Z,3312
2017-07-08T08:15:58.992Z,3096
2017-07-08T08:17:00.400Z,2656
2017-07-08T08:18:01.879Z,2296
2017-07-08T08:19:03.292Z,2164
2017-07-08T08:20:05.752Z,2356
2017-07-08T08:21:07.171Z,2668
2017-07-08T08:22:08.585Z,2956
2017-07-08T08:23:09.988Z,2888
2017-07-08T08:24:11.404Z,2708
2017-07-08T08:25:12.831Z,2764
2017-07-08T08:26:14.242Z,2892
2017-07-08T08:27:15.658Z,2744
2017-07-08T08:28:17.067Z,2492
2017-07-08T08:29:18.464Z,2504
2017-07-08T08:30:19.885Z,2896
2017-07-08T08:31:21.293Z,3100
2017-07-08T08:32:22.698Z,3064
2017-07-08T08:33:24.123Z,3416
2017-07-08T08:34:25.527Z,3604
2017-07-08T08:35:26.959Z,3464
2017-07-08T08:36:28.371Z,3796
2017-07-08T08:37:29.781Z,3656
2017-07-08T08:38:31.210Z,3348
2017-07-08T08:39:32.654Z,3236
2017-07-08T08:40:34.060Z,3956
2017-07-08T08:41:35.478Z,4668
2017-07-08T08:42:36.889Z,3516
2017-07-08T08:43:38.295Z,3116
2017-07-08T08:44:39.779Z,3460
2017-07-08T08:45:41.191Z,3976
2017-07-08T08:46:42.602Z,3868
2017-07-08T08:47:44.021Z,3136
2017-07-08T08:48:45.428Z,2456
2017-07-08T08:49:46.843Z,2024
2017-07-08T08:50:48.260Z,1880
2017-07-08T08:51:49.666Z,1900
2017-07-08T08:52:52.072Z,2124
2017-07-08T08:53:53.477Z,2420
2017-07-08T08:54:54.889Z,2680
2017-07-08T08:55:56.301Z,2868
2017-07-08T08:56:57.711Z,3148
2017-07-08T08:57:59.131Z,3288
2017-07-08T08:59:00.536Z,3612
2017-07-08T09:00:01.946Z,3304
2017-07-08T09:01:03.378Z,4204
2017-07-08T09:02:04.791Z,6312
2017-07-08T09:03:06.239Z,6496
2017-07-08T09:04:07.660Z,4628
2017-07-08T09:05:09.074Z,4124
2017-07-08T09:06:10.482Z,4016
2017-07-08T09:07:11.895Z,6840
2017-07-08T09:08:13.300Z,5472
2017-07-08T09:09:14.707Z,6084
2017-07-08T09:10:16.118Z,6492
2017-07-08T09:11:17.529Z,6752
2017-07-08T09:12:18.938Z,5192
2017-07-08T09:13:20.349Z,4624
2017-07-08T09:14:21.756Z,7544
2017-07-08T09:15:23.162Z,7044
2017-07-08T09:16:24.574Z,8712
2017-07-08T09:17:25.980Z,7800
2017-07-08T09:18:27.399Z,9028
2017-07-08T09:19:28.806Z,7800
2017-07-08T09:20:30.219Z,9168
2017-07-08T09:21:31.625Z,9844
2017-07-08T09:22:33.036Z,9560
2017-07-08T09:23:34.443Z,10220
2017-07-08T09:24:35.862Z,10020
2017-07-08T09:25:37.269Z,11720
2017-07-08T09:26:38.681Z,12544
2017-07-08T09:27:40.094Z,24832
2017-07-08T09:28:41.516Z,27200
2017-07-08T09:29:42.924Z,58528
2017-07-08T09:30:44.333Z,47584
2017-07-08T09:31:45.740Z,39168
2017-07-08T09:32:47.156Z,29024
2017-07-08T09:33:48.580Z,33120
2017-07-08T09:34:49.984Z,33088
2017-07-08T09:35:51.394Z,25984
2017-07-08T09:36:52.808Z,27328
2017-07-08T09:37:54.220Z,27136
2017-07-08T09:38:55.635Z,35104
2017-07-08T09:39:57.083Z,50272
2017-07-08T09:40:58.519Z,40960
2017-07-08T09:41:59.935Z,35904
2017-07-08T09:43:01.343Z,73280
2017-07-08T09:44:02.764Z,44800
2017-07-08T09:45:04.170Z,68288
2017-07-08T09:46:05.583Z,65696
2017-07-08T09:47:06.999Z,51616
2017-07-08T09:48:08.415Z,87008
2017-07-08T09:49:09.833Z,78752
2017-07-08T09:50:11.276Z,71360
2017-07-08T09:51:12.695Z,69920
2017-07-08T09:52:14.226Z,63648
2017-07-08T09:53:15.588Z,60672
2017-07-08T09:54:17.041Z,58912
2017-07-08T09:55:18.457Z,59456
2017-07-08T09:56:19.872Z,56992
2017-07-08T09:57:21.367Z,53568
2017-07-08T09:58:22.781Z,49472
2017-07-08T09:59:24.191Z,43936
2017-07-08T10:00:25.684Z,43072
2017-07-08T10:01:27.101Z,36896
2017-07-08T10:02:28.520Z,39552
2017-07-08T10:03:29.934Z,39744
2017-07-08T10:04:31.346Z,39744
2017-07-08T10:05:32.762Z,38048
2017-07-08T10:06:34.180Z,36544
2017-07-08T10:07:35.592Z,35520
2017-07-08T10:08:37.011Z,33824
2017-07-08T10:09:38.430Z,30784
2017-07-08T10:10:39.936Z,19744
2017-07-08T10:11:41.381Z,14476
2017-07-08T10:12:42.792Z,19552
2017-07-08T10:13:44.217Z,17920
2017-07-08T10:14:45.633Z,14184
2017-07-08T10:15:47.047Z,10780
2017-07-08T10:16:48.467Z,15808
2017-07-08T10:17:49.879Z,16704
2017-07-08T10:18:51.294Z,24896
2017-07-08T10:19:52.744Z,27680
2017-07-08T10:20:54.539Z,21632
2017-07-08T10:21:55.953Z,24224
2017-07-08T10:22:57.473Z,29088
2017-07-08T10:23:58.887Z,24736
2017-07-08T10:25:00.353Z,26720
2017-07-08T10:26:01.794Z,18784
2017-07-08T10:27:03.209Z,16768
2017-07-08T10:28:04.692Z,18176
2017-07-08T10:29:06.107Z,18912
2017-07-08T10:30:07.522Z,21536
2017-07-08T10:31:09.010Z,20192
2017-07-08T10:32:10.423Z,20928
2017-07-08T10:33:11.832Z,21568
2017-07-08T10:34:13.317Z,20544
2017-07-08T10:35:14.731Z,24352
2017-07-08T10:36:16.196Z,23136
2017-07-08T10:37:17.609Z,5284
2017-07-08T10:38:19.025Z,5200
2017-07-08T10:39:20.593Z,25024
2017-07-08T10:40:22.029Z,17376
2017-07-08T10:41:23.493Z,23360
2017-07-08T10:42:24.958Z,24064
2017-07-08T10:43:26.430Z,19904
2017-07-08T10:44:27.841Z,22656
2017-07-08T10:45:29.377Z,21568
2017-07-08T10:46:30.795Z,18112
2017-07-08T10:47:32.270Z,20384
2017-07-08T10:48:33.707Z,23584
2017-07-08T10:49:35.132Z,23136
2017-07-08T10:50:36.570Z,22016
2017-07-08T10:51:37.987Z,20320
2017-07-08T10:52:39.451Z,19328
2017-07-08T10:53:40.866Z,21408
2017-07-08T10:54:42.331Z,20832
2017-07-08T10:55:43.808Z,19008
2017-07-08T10:56:45.312Z,17312
2017-07-08T10:57:46.733Z,15488
2017-07-08T10:58:48.151Z,20576
2017-07-08T10:59:49.635Z,20512
2017-07-08T11:00:51.052Z,20352
2017-07-08T11:01:52.514Z,19136
2017-07-08T11:02:53.957Z,17408
2017-07-08T11:03:55.375Z,17088
2017-07-08T11:04:56.795Z,15904
2017-07-08T11:05:58.270Z,16128
2017-07-08T11:06:59.725Z,14944
2017-07-08T11:08:01.150Z,13428
2017-07-08T11:09:02.602Z,12584
2017-07-08T11:10:04.012Z,10828
2017-07-08T11:11:05.428Z,5704
2017-07-08T11:12:06.921Z,7760
2017-07-08T11:13:08.340Z,7728
2017-07-08T11:14:09.800Z,10460
2017-07-08T11:15:11.218Z,10484
2017-07-08T11:16:12.677Z,11076
2017-07-08T11:17:14.096Z,11336
2017-07-08T11:18:15.513Z,11216
2017-07-08T11:19:16.997Z,11116
2017-07-08T11:20:18.426Z,10544
2017-07-08T11:21:19.881Z,10264
2017-07-08T11:22:21.318Z,4940
2017-07-08T11:23:22.732Z,8708
2017-07-08T11:24:24.149Z,10588
2017-07-08T11:25:25.638Z,11300
2017-07-08T11:26:27.053Z,11768
2017-07-08T11:27:28.471Z,11688
2017-07-08T11:28:29.960Z,12272
2017-07-08T11:29:31.376Z,12244
2017-07-08T11:30:32.839Z,4528
2017-07-08T11:31:34.252Z,3896
2017-07-08T11:32:35.726Z,3796
2017-07-08T11:33:37.137Z,10088
2017-07-08T11:34:38.602Z,11620
2017-07-08T11:35:40.077Z,11172
2017-07-08T11:36:41.586Z,12236
2017-07-08T11:37:43.008Z,10032
2017-07-08T11:38:44.433Z,10364
2017-07-08T11:39:45.912Z,11984
2017-07-08T11:40:47.328Z,13148
2017-07-08T11:41:48.745Z,12456
2017-07-08T11:42:50.223Z,8184
2017-07-08T11:43:51.636Z,10884
2017-07-08T11:44:53.047Z,3736
2017-07-08T11:45:54.546Z,3552
2017-07-08T11:46:55.994Z,10652
2017-07-08T11:47:57.483Z,3608
2017-07-08T11:48:58.969Z,4132
2017-07-08T11:50:00.389Z,15136
2017-07-08T11:51:01.804Z,20768
2017-07-08T11:52:03.291Z,17248
2017-07-08T11:53:04.730Z,11576
2017-07-08T11:54:06.143Z,10400
2017-07-08T11:55:07.703Z,9788
2017-07-08T11:56:09.117Z,9480
2017-07-08T11:57:10.595Z,9568
2017-07-08T11:58:12.012Z,9456
2017-07-08T11:59:13.422Z,9512
2017-07-08T12:00:14.961Z,9924
2017-07-08T12:01:16.330Z,9792
2017-07-08T12:02:17.745Z,10124
2017-07-08T12:03:19.235Z,10188
2017-07-08T12:04:20.652Z,9160
2017-07-08T12:05:22.118Z,7788
2017-07-08T12:06:23.529Z,8348
2017-07-08T12:07:24.946Z,8772
2017-07-08T12:08:26.364Z,4612
2017-07-08T12:09:27.781Z,3556
2017-07-08T12:10:29.215Z,3420
2017-07-08T12:11:30.635Z,9028
2017-07-08T12:12:32.053Z,7728
2017-07-08T12:13:33.537Z,8356
2017-07-08T12:14:34.953Z,8372
2017-07-08T12:15:36.420Z,8880
2017-07-08T12:16:37.831Z,7996
2017-07-08T12:17:39.296Z,7760
2017-07-08T12:18:40.713Z,8060
2017-07-08T12:19:42.129Z,7852
2017-07-08T12:20:43.618Z,7660
2017-07-08T12:21:45.037Z,5760
2017-07-08T12:22:46.450Z,3540
2017-07-08T12:23:47.937Z,3264
2017-07-08T12:24:49.355Z,2984
2017-07-08T12:25:50.813Z,2316
2017-07-08T12:26:52.236Z,1888
2017-07-08T12:27:53.701Z,2052
2017-07-08T12:28:55.115Z,1764
2017-07-08T12:29:56.525Z,1772
2017-07-08T12:30:58.043Z,1812
2017-07-08T12:31:59.457Z,1948
2017-07-08T12:33:00.879Z,5332
2017-07-08T12:34:02.336Z,6764
2017-07-08T12:35:03.753Z,6144
2017-07-08T12:36:05.250Z,5236
2017-07-08T12:37:06.664Z,3864
2017-07-08T12:38:08.102Z,3460
2017-07-08T12:39:09.516Z,3160
2017-07-08T12:40:10.931Z,3020
2017-07-08T12:41:12.429Z,4632
2017-07-08T12:42:13.838Z,3116
2017-07-08T12:43:15.267Z,3288
2017-07-08T12:44:16.744Z,3116
2017-07-08T12:45:18.163Z,3068
2017-07-08T12:46:19.626Z,4800
2017-07-08T12:47:21.038Z,3900
2017-07-08T12:48:22.506Z,6276
2017-07-08T12:49:23.916Z,4940
2017-07-08T12:50:25.329Z,5456
2017-07-08T12:51:26.852Z,5968
2017-07-08T12:52:28.265Z,4436
2017-07-08T12:53:29.676Z,4320
2017-07-08T12:54:31.171Z,4016
2017-07-08T12:55:32.580Z,4520
2017-07-08T12:56:34.048Z,3184
2017-07-08T12:57:35.470Z,2584
2017-07-08T12:58:36.900Z,2060
2017-07-08T12:59:38.326Z,1884
2017-07-08T13:00:39.820Z,1888
2017-07-08T13:01:41.335Z,1912
2017-07-08T13:02:42.744Z,1828
2017-07-08T13:03:44.205Z,1776
2017-07-08T13:04:45.652Z,1832
2017-07-08T13:05:47.059Z,2764
2017-07-08T13:06:48.473Z,3768
2017-07-08T13:07:50.002Z,4828
2017-07-08T13:08:51.389Z,3664
2017-07-08T13:09:52.801Z,5340
2017-07-08T13:10:54.297Z,2616
2017-07-08T13:11:55.709Z,2240
2017-07-08T13:12:57.116Z,1888
2017-07-08T13:13:58.614Z,1828
2017-07-08T13:15:00.026Z,1920
2017-07-08T13:16:01.434Z,1820
2017-07-08T13:17:02.936Z,1596
2017-07-08T13:18:04.340Z,1684
2017-07-08T13:19:05.764Z,2628
2017-07-08T13:20:07.254Z,2768
2017-07-08T13:21:08.659Z,2224
2017-07-08T13:22:10.095Z,1956
2017-07-08T13:23:11.575Z,2060
2017-07-08T13:24:13.003Z,2068
2017-07-08T13:25:14.507Z,2160
2017-07-08T13:26:16.017Z,2240
2017-07-08T13:27:17.434Z,2324
2017-07-08T13:28:18.880Z,2340
2017-07-08T13:29:20.289Z,2468
2017-07-08T13:30:21.758Z,2204
2017-07-08T13:31:23.170Z,1956
2017-07-08T13:32:24.639Z,1800
2017-07-08T13:33:26.048Z,1640
2017-07-08T13:34:27.520Z,1676
2017-07-08T13:35:28.929Z,1832
2017-07-08T13:36:30.401Z,1664
2017-07-08T13:37:31.812Z,1356
2017-07-08T13:38:33.281Z,1360
2017-07-08T13:39:34.700Z,1356
2017-07-08T13:40:36.109Z,1312
2017-07-08T13:41:37.614Z,1408
2017-07-08T13:42:39.015Z,1472
2017-07-08T13:43:40.423Z,1556
2017-07-08T13:44:41.927Z,2052
2017-07-08T13:45:43.358Z,2452
2017-07-08T13:46:44.803Z,2972
2017-07-08T13:47:46.213Z,3108
2017-07-08T13:48:47.687Z,2940
2017-07-08T13:49:49.094Z,2692
2017-07-08T13:50:50.560Z,2144
2017-07-08T13:51:52.005Z,2096
2017-07-08T13:52:53.443Z,2612
2017-07-08T13:53:54.844Z,2772
2017-07-08T13:54:56.326Z,2704
2017-07-08T13:55:57.750Z,2368
2017-07-08T13:56:59.208Z,2196
2017-07-08T13:58:00.619Z,2256
2017-07-08T13:59:02.087Z,1924
2017-07-08T14:00:03.494Z,1776